sensor_id;sensor_type;location;lat;lon;timestamp;pressure;altitude;pressure_sealevel;temperature;humidity
48872;BME280;36154;51.674;7.824;2022-09-01T00:00:24;101339.78;;;25.72;31.02
48872;BME280;36154;51.674;7.824;2022-09-01T00:02:54;101326.81;;;25.70;30.98
48872;BME280;36154;51.674;7.824;2022-09-01T00:05:20;101335.56;;;25.69;31.04
48872;BME280;36154;51.674;7.824;2022-09-01T00:07:45;101333.84;;;25.68;30.49
48872;BME280;36154;51.674;7.824;2022-09-01T00:10:11;101332.13;;;25.67;31.02
48872;BME280;36154;51.674;7.824;2022-09-01T00:12:37;101326.06;;;25.67;31.16
48872;BME280;36154;51.674;7.824;2022-09-01T00:15:05;101335.59;;;25.68;31.28
48872;BME280;36154;51.674;7.824;2022-09-01T00:17:31;101333.88;;;25.67;31.48
48872;BME280;36154;51.674;7.824;2022-09-01T00:19:56;101336.50;;;25.67;31.13
48872;BME280;36154;51.674;7.824;2022-09-01T00:22:22;101338.22;;;25.68;31.47
48872;BME280;36154;51.674;7.824;2022-09-01T00:24:47;101340.88;;;25.66;31.29
48872;BME280;36154;51.674;7.824;2022-09-01T00:27:12;101343.47;;;25.66;31.42
48872;BME280;36154;51.674;7.824;2022-09-01T00:29:38;101340.88;;;25.66;31.47
48872;BME280;36154;51.674;7.824;2022-09-01T00:32:03;101337.41;;;25.66;31.47
48872;BME280;36154;51.674;7.824;2022-09-01T00:34:29;101340.81;;;25.68;31.84
48872;BME280;36154;51.674;7.824;2022-09-01T00:36:55;101339.94;;;25.67;31.56
48872;BME280;36154;51.674;7.824;2022-09-01T00:39:20;101345.25;;;25.66;31.35
48872;BME280;36154;51.674;7.824;2022-09-01T00:41:45;101341.81;;;25.64;31.59
48872;BME280;36154;51.674;7.824;2022-09-01T00:44:15;101349.69;;;25.62;31.50
48872;BME280;36154;51.674;7.824;2022-09-01T00:46:44;101343.56;;;25.63;31.37
48872;BME280;36154;51.674;7.824;2022-09-01T00:51:58;101339.38;;;25.59;31.62
48872;BME280;36154;51.674;7.824;2022-09-01T00:54:28;101335.06;;;25.58;31.35
48872;BME280;36154;51.674;7.824;2022-09-01T00:56:55;101339.53;;;25.54;31.73
48872;BME280;36154;51.674;7.824;2022-09-01T00:59:22;101331.72;;;25.54;31.40
48872;BME280;36154;51.674;7.824;2022-09-01T01:01:48;101337.88;;;25.52;31.64
48872;BME280;36154;51.674;7.824;2022-09-01T01:04:14;101337.88;;;25.52;31.87
48872;BME280;36154;51.674;7.824;2022-09-01T01:06:49;101335.31;;;25.50;32.05
48872;BME280;36154;51.674;7.824;2022-09-01T01:09:22;101327.56;;;25.49;31.76
48872;BME280;36154;51.674;7.824;2022-09-01T01:11:49;101335.38;;;25.49;31.90
48872;BME280;36154;51.674;7.824;2022-09-01T01:14:15;101331.09;;;25.48;32.05
48872;BME280;36154;51.674;7.824;2022-09-01T01:16:47;101326.81;;;25.45;31.52
48872;BME280;36154;51.674;7.824;2022-09-01T01:25:29;101329.59;;;25.41;32.03
48872;BME280;36154;51.674;7.824;2022-09-01T01:28:08;101332.25;;;25.39;31.97
48872;BME280;36154;51.674;7.824;2022-09-01T01:30:35;101333.94;;;25.40;31.86
48872;BME280;36154;51.674;7.824;2022-09-01T01:33:03;101333.09;;;25.40;31.86
48872;BME280;36154;51.674;7.824;2022-09-01T01:35:28;101340.13;;;25.38;32.36
48872;BME280;36154;51.674;7.824;2022-09-01T01:37:56;101334.91;;;25.38;32.12
48872;BME280;36154;51.674;7.824;2022-09-01T01:40:22;101341.81;;;25.39;31.95
48872;BME280;36154;51.674;7.824;2022-09-01T01:42:50;101340.13;;;25.38;32.04
48872;BME280;36154;51.674;7.824;2022-09-01T01:45:20;101338.41;;;25.36;31.99
48872;BME280;36154;51.674;7.824;2022-09-01T01:47:47;101342.72;;;25.38;32.39
48872;BME280;36154;51.674;7.824;2022-09-01T01:50:28;101336.69;;;25.35;32.02
48872;BME280;36154;51.674;7.824;2022-09-01T01:52:57;101341.91;;;25.35;32.26
48872;BME280;36154;51.674;7.824;2022-09-01T01:55:24;101342.78;;;25.36;32.38
48872;BME280;36154;51.674;7.824;2022-09-01T01:57:53;101333.31;;;25.33;32.22
48872;BME280;36154;51.674;7.824;2022-09-01T02:00:23;101346.28;;;25.35;31.95
48872;BME280;36154;51.674;7.824;2022-09-01T02:02:51;101348.94;;;25.33;32.19
48872;BME280;36154;51.674;7.824;2022-09-01T02:05:19;101343.72;;;25.33;32.18
48872;BME280;36154;51.674;7.824;2022-09-01T02:07:47;101338.59;;;25.30;32.26
48872;BME280;36154;51.674;7.824;2022-09-01T02:10:14;101347.25;;;25.32;32.29
48872;BME280;36154;51.674;7.824;2022-09-01T02:12:39;101340.31;;;25.31;32.08
48872;BME280;36154;51.674;7.824;2022-09-01T02:15:07;101344.75;;;25.29;32.13
48872;BME280;36154;51.674;7.824;2022-09-01T02:17:33;101347.34;;;25.29;32.27
48872;BME280;36154;51.674;7.824;2022-09-01T02:19:58;101349.06;;;25.29;32.01
48872;BME280;36154;51.674;7.824;2022-09-01T02:22:24;101347.38;;;25.28;32.05
48872;BME280;36154;51.674;7.824;2022-09-01T02:24:49;101348.28;;;25.27;32.24
48872;BME280;36154;51.674;7.824;2022-09-01T02:27:17;101343.09;;;25.25;32.40
48872;BME280;36154;51.674;7.824;2022-09-01T02:29:47;101342.28;;;25.23;32.51
48872;BME280;36154;51.674;7.824;2022-09-01T02:32:15;101344.06;;;25.23;32.23
48872;BME280;36154;51.674;7.824;2022-09-01T02:34:49;101347.59;;;25.20;32.21
48872;BME280;36154;51.674;7.824;2022-09-01T02:37:19;101340.72;;;25.19;32.39
48872;BME280;36154;51.674;7.824;2022-09-01T02:39:49;101342.50;;;25.17;32.22
48872;BME280;36154;51.674;7.824;2022-09-01T02:42:14;101341.59;;;25.18;32.39
48872;BME280;36154;51.674;7.824;2022-09-01T02:44:40;101338.19;;;25.16;32.26
48872;BME280;36154;51.674;7.824;2022-09-01T02:47:07;101347.69;;;25.17;32.26
48872;BME280;36154;51.674;7.824;2022-09-01T02:49:33;101345.09;;;25.17;32.60
48872;BME280;36154;51.674;7.824;2022-09-01T02:52:00;101347.69;;;25.17;32.49
48872;BME280;36154;51.674;7.824;2022-09-01T02:54:28;101345.16;;;25.15;32.55
48872;BME280;36154;51.674;7.824;2022-09-01T02:56:55;101346.00;;;25.16;32.56
48872;BME280;36154;51.674;7.824;2022-09-01T02:59:22;101340.81;;;25.16;32.46
48872;BME280;36154;51.674;7.824;2022-09-01T03:01:49;101341.69;;;25.15;32.19
48872;BME280;36154;51.674;7.824;2022-09-01T03:04:20;101347.81;;;25.14;32.47
48872;BME280;36154;51.674;7.824;2022-09-01T03:06:46;101349.56;;;25.13;32.33
48872;BME280;36154;51.674;7.824;2022-09-01T03:09:15;101345.25;;;25.12;32.43
48872;BME280;36154;51.674;7.824;2022-09-01T03:11:43;101341.00;;;25.10;32.15
48872;BME280;36154;51.674;7.824;2022-09-01T03:14:09;101346.19;;;25.10;32.53
48872;BME280;36154;51.674;7.824;2022-09-01T03:16:35;101345.31;;;25.11;32.46
48872;BME280;36154;51.674;7.824;2022-09-01T03:19:02;101351.41;;;25.10;32.60
48872;BME280;36154;51.674;7.824;2022-09-01T03:21:28;101347.13;;;25.09;32.29
48872;BME280;36154;51.674;7.824;2022-09-01T03:23:55;101347.13;;;25.09;32.42
48872;BME280;36154;51.674;7.824;2022-09-01T03:26:22;101341.91;;;25.09;32.50
48872;BME280;36154;51.674;7.824;2022-09-01T03:28:49;101344.53;;;25.09;32.61
48872;BME280;36154;51.674;7.824;2022-09-01T03:31:16;101348.00;;;25.08;32.18
48872;BME280;36154;51.674;7.824;2022-09-01T03:33:42;101338.44;;;25.08;32.44
48872;BME280;36154;51.674;7.824;2022-09-01T03:36:07;101348.00;;;25.08;32.52
48872;BME280;36154;51.674;7.824;2022-09-01T03:38:33;101344.56;;;25.07;32.47
48872;BME280;36154;51.674;7.824;2022-09-01T03:41:03;101346.28;;;25.07;32.29
48872;BME280;36154;51.674;7.824;2022-09-01T03:43:32;101343.69;;;25.07;32.44
48872;BME280;36154;51.674;7.824;2022-09-01T03:45:59;101342.84;;;25.06;32.37
48872;BME280;36154;51.674;7.824;2022-09-01T03:48:26;101339.38;;;25.07;32.43
48872;BME280;36154;51.674;7.824;2022-09-01T03:50:54;101342.81;;;25.08;32.48
48872;BME280;36154;51.674;7.824;2022-09-01T03:53:22;101345.41;;;25.08;32.35
48872;BME280;36154;51.674;7.824;2022-09-01T03:55:48;101344.53;;;25.09;32.66
48872;BME280;36154;51.674;7.824;2022-09-01T03:58:16;101340.19;;;25.08;32.42
48872;BME280;36154;51.674;7.824;2022-09-01T04:00:46;101349.72;;;25.09;32.38
48872;BME280;36154;51.674;7.824;2022-09-01T04:03:13;101348.00;;;25.08;32.25
48872;BME280;36154;51.674;7.824;2022-09-01T04:05:43;101346.28;;;25.07;32.53
48872;BME280;36154;51.674;7.824;2022-09-01T04:08:10;101352.44;;;25.06;32.29
48872;BME280;36154;51.674;7.824;2022-09-01T04:10:42;101342.91;;;25.05;32.30
48872;BME280;36154;51.674;7.824;2022-09-01T04:13:14;101345.56;;;25.03;32.24
48872;BME280;36154;51.674;7.824;2022-09-01T04:15:39;101350.81;;;25.02;32.55
48872;BME280;36154;51.674;7.824;2022-09-01T04:18:04;101348.19;;;25.02;32.21
48872;BME280;36154;51.674;7.824;2022-09-01T04:20:45;101344.81;;;24.99;32.29
48872;BME280;36154;51.674;7.824;2022-09-01T04:23:21;101349.97;;;25.01;32.35
48872;BME280;36154;51.674;7.824;2022-09-01T04:25:52;101337.03;;;24.98;32.41
48872;BME280;36154;51.674;7.824;2022-09-01T04:28:18;101339.66;;;24.98;32.85
48872;BME280;36154;51.674;7.824;2022-09-01T04:30:57;101339.66;;;24.98;32.27
48872;BME280;36154;51.674;7.824;2022-09-01T04:33:24;101340.53;;;24.97;32.56
48872;BME280;36154;51.674;7.824;2022-09-01T04:35:51;101347.50;;;24.96;32.31
48872;BME280;36154;51.674;7.824;2022-09-01T04:38:24;101338.06;;;24.94;32.31
48872;BME280;36154;51.674;7.824;2022-09-01T04:40:50;101345.81;;;24.95;32.51
48872;BME280;36154;51.674;7.824;2022-09-01T04:43:16;101344.91;;;24.96;32.38
48872;BME280;36154;51.674;7.824;2022-09-01T04:45:42;101343.22;;;24.95;32.69
48872;BME280;36154;51.674;7.824;2022-09-01T04:48:08;101339.75;;;24.95;32.50
48872;BME280;36154;51.674;7.824;2022-09-01T04:50:33;101337.13;;;24.95;32.58
48872;BME280;36154;51.674;7.824;2022-09-01T04:53:03;101341.50;;;24.94;32.56
48872;BME280;36154;51.674;7.824;2022-09-01T04:55:30;101344.16;;;24.93;32.43
48872;BME280;36154;51.674;7.824;2022-09-01T04:57:58;101339.78;;;24.93;32.57
48872;BME280;36154;51.674;7.824;2022-09-01T05:00:25;101339.78;;;24.93;32.61
48872;BME280;36154;51.674;7.824;2022-09-01T05:02:52;101341.50;;;24.94;32.42
48872;BME280;36154;51.674;7.824;2022-09-01T05:05:22;101336.34;;;24.93;32.53
48872;BME280;36154;51.674;7.824;2022-09-01T05:07:48;101339.78;;;24.93;32.74
48872;BME280;36154;51.674;7.824;2022-09-01T05:10:20;101342.44;;;24.92;32.88
48872;BME280;36154;51.674;7.824;2022-09-01T05:12:47;101338.19;;;24.89;32.58
48872;BME280;36154;51.674;7.824;2022-09-01T05:15:13;101342.44;;;24.92;32.45
48872;BME280;36154;51.674;7.824;2022-09-01T05:17:39;101341.59;;;24.91;32.47
48872;BME280;36154;51.674;7.824;2022-09-01T05:20:05;101346.78;;;24.91;32.52
48872;BME280;36154;51.674;7.824;2022-09-01T05:22:30;101340.78;;;24.89;32.56
48872;BME280;36154;51.674;7.824;2022-09-01T05:24:58;101336.44;;;24.90;32.61
48872;BME280;36154;51.674;7.824;2022-09-01T05:27:38;101334.78;;;24.87;32.83
48872;BME280;36154;51.674;7.824;2022-09-01T05:30:05;101339.13;;;24.87;33.00
48872;BME280;36154;51.674;7.824;2022-09-01T05:32:33;101341.69;;;24.88;32.49
48872;BME280;36154;51.674;7.824;2022-09-01T05:35:01;101338.28;;;24.86;32.93
48872;BME280;36154;51.674;7.824;2022-09-01T05:37:27;101341.72;;;24.87;32.63
48872;BME280;36154;51.674;7.824;2022-09-01T05:39:54;101340.88;;;24.86;32.52
48872;BME280;36154;51.674;7.824;2022-09-01T05:42:20;101340.03;;;24.86;32.88
48872;BME280;36154;51.674;7.824;2022-09-01T05:44:45;101336.56;;;24.85;33.06
48872;BME280;36154;51.674;7.824;2022-09-01T05:47:12;101346.13;;;24.85;32.62
48872;BME280;36154;51.674;7.824;2022-09-01T05:49:37;101337.44;;;24.86;32.68
48872;BME280;36154;51.674;7.824;2022-09-01T05:52:04;101346.13;;;24.85;32.62
48872;BME280;36154;51.674;7.824;2022-09-01T05:54:33;101348.69;;;24.86;32.95
48872;BME280;36154;51.674;7.824;2022-09-01T05:56:58;101356.53;;;24.85;32.70
48872;BME280;36154;51.674;7.824;2022-09-01T05:59:26;101348.78;;;24.83;32.76
48872;BME280;36154;51.674;7.824;2022-09-01T06:01:53;101351.34;;;24.85;32.69
48872;BME280;36154;51.674;7.824;2022-09-01T06:04:18;101357.38;;;24.85;32.96
48872;BME280;36154;51.674;7.824;2022-09-01T06:06:46;101355.72;;;24.84;32.67
48872;BME280;36154;51.674;7.824;2022-09-01T06:09:14;101354.00;;;24.83;32.93
48872;BME280;36154;51.674;7.824;2022-09-01T06:11:43;101341.91;;;24.82;32.93
48872;BME280;36154;51.674;7.824;2022-09-01T06:14:11;101345.38;;;24.81;32.67
48872;BME280;36154;51.674;7.824;2022-09-01T06:16:37;101348.00;;;24.81;33.06
48872;BME280;36154;51.674;7.824;2022-09-01T06:19:03;101347.16;;;24.80;32.99
48872;BME280;36154;51.674;7.824;2022-09-01T06:21:29;101347.16;;;24.80;32.84
48872;BME280;36154;51.674;7.824;2022-09-01T06:23:57;101347.16;;;24.80;33.28
48872;BME280;36154;51.674;7.824;2022-09-01T06:26:30;101343.66;;;24.80;32.88
48872;BME280;36154;51.674;7.824;2022-09-01T06:29:07;101343.66;;;24.80;32.80
48872;BME280;36154;51.674;7.824;2022-09-01T06:31:35;101342.81;;;24.79;33.10
48872;BME280;36154;51.674;7.824;2022-09-01T06:34:05;101338.50;;;24.78;33.04
48872;BME280;36154;51.674;7.824;2022-09-01T06:36:34;101348.91;;;24.78;33.02
48872;BME280;36154;51.674;7.824;2022-09-01T06:39:02;101347.25;;;24.77;33.02
48872;BME280;36154;51.674;7.824;2022-09-01T06:41:28;101358.50;;;24.78;33.05
48872;BME280;36154;51.674;7.824;2022-09-01T06:43:55;101352.41;;;24.79;33.02
48872;BME280;36154;51.674;7.824;2022-09-01T06:46:21;101356.69;;;24.80;33.01
48872;BME280;36154;51.674;7.824;2022-09-01T06:48:48;101358.44;;;24.79;32.94
48872;BME280;36154;51.674;7.824;2022-09-01T06:51:19;101360.22;;;24.79;33.26
48872;BME280;36154;51.674;7.824;2022-09-01T06:53:46;101359.28;;;24.80;33.04
48872;BME280;36154;51.674;7.824;2022-09-01T06:56:21;101365.38;;;24.80;32.88
48872;BME280;36154;51.674;7.824;2022-09-01T06:58:46;101365.38;;;24.80;33.30
48872;BME280;36154;51.674;7.824;2022-09-01T07:01:14;101367.97;;;24.80;32.93
48872;BME280;36154;51.674;7.824;2022-09-01T07:03:45;101363.66;;;24.79;32.99
48872;BME280;36154;51.674;7.824;2022-09-01T07:06:12;101366.22;;;24.81;33.32
48872;BME280;36154;51.674;7.824;2022-09-01T07:08:38;101367.97;;;24.80;33.22
48872;BME280;36154;51.674;7.824;2022-09-01T07:11:15;101363.59;;;24.81;32.88
48872;BME280;36154;51.674;7.824;2022-09-01T07:13:41;101372.31;;;24.80;33.23
48872;BME280;36154;51.674;7.824;2022-09-01T07:16:15;101363.66;;;24.79;33.30
48872;BME280;36154;51.674;7.824;2022-09-01T07:18:41;101368.00;;;24.79;33.07
48872;BME280;36154;51.674;7.824;2022-09-01T07:21:07;101371.50;;;24.78;33.05
48872;BME280;36154;51.674;7.824;2022-09-01T07:23:32;101368.06;;;24.77;33.00
48872;BME280;36154;51.674;7.824;2022-09-01T07:25:57;101378.47;;;24.77;33.22
48872;BME280;36154;51.674;7.824;2022-09-01T07:28:24;101364.63;;;24.77;33.26
48872;BME280;36154;51.674;7.824;2022-09-01T07:30:54;101362.84;;;24.77;33.21
48872;BME280;36154;51.674;7.824;2022-09-01T07:33:21;101366.28;;;24.78;33.54
48872;BME280;36154;51.674;7.824;2022-09-01T07:35:49;101366.28;;;24.78;33.80
48872;BME280;36154;51.674;7.824;2022-09-01T07:38:20;101364.63;;;24.77;33.56
48872;BME280;36154;51.674;7.824;2022-09-01T07:40:46;101373.31;;;24.76;33.61
48872;BME280;36154;51.674;7.824;2022-09-01T07:43:24;101366.28;;;24.78;33.74
48872;BME280;36154;51.674;7.824;2022-09-01T07:45:53;101368.00;;;24.79;33.73
48872;BME280;36154;51.674;7.824;2022-09-01T07:48:24;101355.03;;;24.77;33.86
48872;BME280;36154;51.674;7.824;2022-09-01T07:50:53;101365.41;;;24.79;33.61
48872;BME280;36154;51.674;7.824;2022-09-01T07:53:32;101362.81;;;24.79;33.65
48872;BME280;36154;51.674;7.824;2022-09-01T07:56:09;101357.59;;;24.79;33.92
48872;BME280;36154;51.674;7.824;2022-09-01T07:58:37;101357.59;;;24.79;34.15
48872;BME280;36154;51.674;7.824;2022-09-01T08:01:11;101364.50;;;24.80;34.02
48872;BME280;36154;51.674;7.824;2022-09-01T08:03:39;101364.50;;;24.80;33.73
48872;BME280;36154;51.674;7.824;2022-09-01T08:06:06;101366.22;;;24.81;33.82
48872;BME280;36154;51.674;7.824;2022-09-01T08:08:33;101357.50;;;24.82;33.82
48872;BME280;36154;51.674;7.824;2022-09-01T08:10:59;101362.72;;;24.82;34.20
48872;BME280;36154;51.674;7.824;2022-09-01T08:13:24;101355.72;;;24.84;34.16
48872;BME280;36154;51.674;7.824;2022-09-01T08:15:49;101355.72;;;24.84;33.95
48872;BME280;36154;51.674;7.824;2022-09-01T08:18:15;101366.06;;;24.86;34.07
48872;BME280;36154;51.674;7.824;2022-09-01T08:20:42;101362.59;;;24.85;33.92
48872;BME280;36154;51.674;7.824;2022-09-01T08:23:17;101356.50;;;24.86;34.09
48872;BME280;36154;51.674;7.824;2022-09-01T08:25:45;101356.50;;;24.86;33.91
48872;BME280;36154;51.674;7.824;2022-09-01T08:28:11;101359.00;;;24.89;33.99
48872;BME280;36154;51.674;7.824;2022-09-01T08:30:39;101357.25;;;24.90;34.03
48872;BME280;36154;51.674;7.824;2022-09-01T08:33:05;101366.78;;;24.91;33.83
48872;BME280;36154;51.674;7.824;2022-09-01T08:35:30;101366.78;;;24.91;34.18
48872;BME280;36154;51.674;7.824;2022-09-01T08:37:56;101360.66;;;24.92;33.77
48872;BME280;36154;51.674;7.824;2022-09-01T08:40:22;101358.00;;;24.93;33.93
48872;BME280;36154;51.674;7.824;2022-09-01T08:45:38;101355.41;;;24.93;33.86
48872;BME280;36154;51.674;7.824;2022-09-01T08:48:15;101356.28;;;24.94;34.16
48872;BME280;36154;51.674;7.824;2022-09-01T08:50:43;101358.84;;;24.95;33.74
48872;BME280;36154;51.674;7.824;2022-09-01T08:53:22;101360.50;;;24.96;34.17
48872;BME280;36154;51.674;7.824;2022-09-01T08:55:54;101362.22;;;24.97;34.24
48872;BME280;36154;51.674;7.824;2022-09-01T08:58:20;101358.72;;;24.98;34.07
48872;BME280;36154;51.674;7.824;2022-09-01T09:00:54;101350.00;;;24.99;33.88
48872;BME280;36154;51.674;7.824;2022-09-01T09:06:21;101357.69;;;25.04;34.25
48872;BME280;36154;51.674;7.824;2022-09-01T09:08:57;101353.31;;;25.05;34.28
48872;BME280;36154;51.674;7.824;2022-09-01T09:17:00;101348.06;;;25.06;34.25
48872;BME280;36154;51.674;7.824;2022-09-01T09:19:32;101347.16;;;25.07;34.05
48872;BME280;36154;51.674;7.824;2022-09-01T09:22:03;101352.34;;;25.09;34.13
48872;BME280;36154;51.674;7.824;2022-09-01T09:29:48;101348.75;;;25.11;33.90
48872;BME280;36154;51.674;7.824;2022-09-01T09:32:15;101343.50;;;25.13;34.29
48872;BME280;36154;51.674;7.824;2022-09-01T09:34:41;101334.81;;;25.14;34.23
48872;BME280;36154;51.674;7.824;2022-09-01T09:42:28;101334.69;;;25.17;34.63
48872;BME280;36154;51.674;7.824;2022-09-01T09:44:53;101341.56;;;25.19;34.62
48872;BME280;36154;51.674;7.824;2022-09-01T09:47:35;101327.63;;;25.21;34.79
48872;BME280;36154;51.674;7.824;2022-09-01T09:50:12;101331.03;;;25.23;34.76
48872;BME280;36154;51.674;7.824;2022-09-01T09:52:38;101328.38;;;25.24;34.96
48872;BME280;36154;51.674;7.824;2022-09-01T09:55:17;101322.25;;;25.25;34.80
48872;BME280;36154;51.674;7.824;2022-09-01T09:57:46;101326.59;;;25.26;34.89
48872;BME280;36154;51.674;7.824;2022-09-01T10:00:22;101317.91;;;25.27;35.39
48872;BME280;36154;51.674;7.824;2022-09-01T10:02:52;101320.44;;;25.29;35.50
48872;BME280;36154;51.674;7.824;2022-09-01T10:05:45;101305.66;;;25.29;34.96
48872;BME280;36154;51.674;7.824;2022-09-01T10:08:37;101312.56;;;25.30;34.95
48872;BME280;36154;51.674;7.824;2022-09-01T10:11:08;101317.78;;;25.30;35.38
48872;BME280;36154;51.674;7.824;2022-09-01T10:13:34;101303.84;;;25.31;35.07
48872;BME280;36154;51.674;7.824;2022-09-01T10:16:21;101289.03;;;25.33;34.58
48872;BME280;36154;51.674;7.824;2022-09-01T10:18:48;101289.94;;;25.32;34.46
48872;BME280;36154;51.674;7.824;2022-09-01T10:21:36;101294.19;;;25.35;34.61
48872;BME280;36154;51.674;7.824;2022-09-01T10:24:32;101294.13;;;25.36;34.70
48872;BME280;36154;51.674;7.824;2022-09-01T10:27:04;101288.03;;;25.38;34.56
48872;BME280;36154;51.674;7.824;2022-09-01T10:29:38;101294.09;;;25.38;34.48
48872;BME280;36154;51.674;7.824;2022-09-01T10:32:10;101300.13;;;25.39;34.40
48872;BME280;36154;51.674;7.824;2022-09-01T10:34:36;101291.44;;;25.40;34.14
48872;BME280;36154;51.674;7.824;2022-09-01T10:37:05;101285.31;;;25.41;34.10
48872;BME280;36154;51.674;7.824;2022-09-01T10:39:30;101289.59;;;25.42;34.22
48872;BME280;36154;51.674;7.824;2022-09-01T10:41:57;101282.63;;;25.42;33.95
48872;BME280;36154;51.674;7.824;2022-09-01T10:44:36;101287.78;;;25.44;34.31
48872;BME280;36154;51.674;7.824;2022-09-01T10:47:07;101289.50;;;25.45;34.59
48872;BME280;36154;51.674;7.824;2022-09-01T10:51:59;101276.44;;;25.46;33.61
48872;BME280;36154;51.674;7.824;2022-09-01T10:57:11;101267.66;;;25.49;33.79
48872;BME280;36154;51.674;7.824;2022-09-01T10:59:46;101265.91;;;25.49;33.78
48872;BME280;36154;51.674;7.824;2022-09-01T11:02:14;101266.75;;;25.50;33.45
48872;BME280;36154;51.674;7.824;2022-09-01T11:20:34;101266.44;;;25.59;32.79
48872;BME280;36154;51.674;7.824;2022-09-01T11:30:42;101261.09;;;25.62;32.27
48872;BME280;36154;51.674;7.824;2022-09-01T11:36:04;101259.31;;;25.64;31.96
48872;BME280;36154;51.674;7.824;2022-09-01T11:38:42;101257.47;;;25.66;31.77
48872;BME280;36154;51.674;7.824;2022-09-01T11:41:27;101259.16;;;25.67;31.52
48872;BME280;36154;51.674;7.824;2022-09-01T11:44:12;101259.09;;;25.69;31.11
48872;BME280;36154;51.674;7.824;2022-09-01T11:46:38;101259.06;;;25.70;31.50
48872;BME280;36154;51.674;7.824;2022-09-01T11:49:23;101250.34;;;25.71;31.40
48872;BME280;36154;51.674;7.824;2022-09-01T11:51:50;101257.25;;;25.72;31.32
48872;BME280;36154;51.674;7.824;2022-09-01T11:54:15;101256.28;;;25.75;31.24
48872;BME280;36154;51.674;7.824;2022-09-01T11:56:41;101252.78;;;25.76;30.69
48872;BME280;36154;51.674;7.824;2022-09-01T11:59:06;101251.81;;;25.79;31.07
48872;BME280;36154;51.674;7.824;2022-09-01T12:01:34;101255.19;;;25.81;30.49
48872;BME280;36154;51.674;7.824;2022-09-01T12:04:20;101243.00;;;25.83;30.50
48872;BME280;36154;51.674;7.824;2022-09-01T12:06:55;101246.38;;;25.85;30.04
48872;BME280;36154;51.674;7.824;2022-09-01T12:09:31;101241.16;;;25.85;30.29
48872;BME280;36154;51.674;7.824;2022-09-01T12:11:57;101246.28;;;25.88;30.10
48872;BME280;36154;51.674;7.824;2022-09-01T12:14:22;101236.63;;;25.90;30.17
48872;BME280;36154;51.674;7.824;2022-09-01T12:17:00;101237.41;;;25.92;29.53
48872;BME280;36154;51.674;7.824;2022-09-01T12:19:29;101237.34;;;25.95;29.58
48872;BME280;36154;51.674;7.824;2022-09-01T12:22:16;101215.59;;;25.95;29.75
48872;BME280;36154;51.674;7.824;2022-09-01T12:24:48;101233.56;;;26.02;29.74
48872;BME280;36154;51.674;7.824;2022-09-01T12:27:14;101230.91;;;26.04;29.92
48872;BME280;36154;51.674;7.824;2022-09-01T12:29:40;101236.06;;;26.05;29.31
48872;BME280;36154;51.674;7.824;2022-09-01T12:32:06;101220.44;;;26.05;29.13
48872;BME280;36154;51.674;7.824;2022-09-01T12:37:05;101231.53;;;26.10;29.30
48872;BME280;36154;51.674;7.824;2022-09-01T12:39:34;101219.25;;;26.13;29.29
48872;BME280;36154;51.674;7.824;2022-09-01T12:42:21;101218.31;;;26.15;29.19
48872;BME280;36154;51.674;7.824;2022-09-01T12:44:53;101229.47;;;26.19;29.04
48872;BME280;36154;51.674;7.824;2022-09-01T12:53:12;101212.59;;;26.27;28.90
48872;BME280;36154;51.674;7.824;2022-09-01T12:55:39;101216.84;;;26.30;29.02
48872;BME280;36154;51.674;7.824;2022-09-01T12:58:07;101210.66;;;26.33;29.26
48872;BME280;36154;51.674;7.824;2022-09-01T13:00:35;101211.41;;;26.36;28.76
48872;BME280;36154;51.674;7.824;2022-09-01T13:07:58;101197.97;;;26.45;28.60
48872;BME280;36154;51.674;7.824;2022-09-01T13:10:30;101197.84;;;26.48;28.89
48872;BME280;36154;51.674;7.824;2022-09-01T13:12:56;101204.63;;;26.53;28.85
48872;BME280;36154;51.674;7.824;2022-09-01T13:15:22;101195.91;;;26.54;28.66
48872;BME280;36154;51.674;7.824;2022-09-01T13:17:47;101197.56;;;26.56;28.55
48872;BME280;36154;51.674;7.824;2022-09-01T13:20:13;101199.16;;;26.59;28.60
48872;BME280;36154;51.674;7.824;2022-09-01T13:22:39;101193.81;;;26.62;28.13
48872;BME280;36154;51.674;7.824;2022-09-01T13:25:10;101196.34;;;26.65;28.08
48872;BME280;36154;51.674;7.824;2022-09-01T13:27:37;101185.78;;;26.68;28.15
48872;BME280;36154;51.674;7.824;2022-09-01T13:30:04;101183.88;;;26.72;28.19
48872;BME280;36154;51.674;7.824;2022-09-01T13:32:31;101168.22;;;26.72;27.74
48872;BME280;36154;51.674;7.824;2022-09-01T13:34:56;101179.31;;;26.77;27.98
48872;BME280;36154;51.674;7.824;2022-09-01T13:37:22;101187.88;;;26.80;27.41
48872;BME280;36154;51.674;7.824;2022-09-01T13:39:48;101181.59;;;26.84;27.42
48872;BME280;36154;51.674;7.824;2022-09-01T13:42:14;101177.09;;;26.88;27.49
48872;BME280;36154;51.674;7.824;2022-09-01T13:44:39;101176.94;;;26.91;27.45
48872;BME280;36154;51.674;7.824;2022-09-01T13:47:05;101170.75;;;26.94;27.48
48872;BME280;36154;51.674;7.824;2022-09-01T13:49:30;101173.31;;;26.95;27.51
48872;BME280;36154;51.674;7.824;2022-09-01T13:51:56;101163.72;;;26.96;27.68
48872;BME280;36154;51.674;7.824;2022-09-01T13:54:21;101167.97;;;26.98;27.15
48872;BME280;36154;51.674;7.824;2022-09-01T13:56:46;101167.84;;;27.01;27.47
48872;BME280;36154;51.674;7.824;2022-09-01T13:59:12;101160.78;;;27.03;26.84
48872;BME280;36154;51.674;7.824;2022-09-01T14:01:37;101166.72;;;27.07;26.89
48872;BME280;36154;51.674;7.824;2022-09-01T14:04:05;101156.13;;;27.10;26.82
48872;BME280;36154;51.674;7.824;2022-09-01T14:06:31;101154.22;;;27.14;26.80
48872;BME280;36154;51.674;7.824;2022-09-01T14:08:57;101147.09;;;27.17;26.84
48872;BME280;36154;51.674;7.824;2022-09-01T14:11:23;101143.59;;;27.18;26.86
48872;BME280;36154;51.674;7.824;2022-09-01T14:13:50;101150.34;;;27.23;26.86